createdAt,value
2016-12-22T00:00:20.726Z,95.45
2016-12-22T00:01:20.712Z,95.64
2016-12-22T00:02:20.697Z,96.11
2016-12-22T00:03:20.681Z,96.11
2016-12-22T00:04:20.662Z,95.83
2016-12-22T00:05:20.646Z,95.92
2016-12-22T00:06:20.631Z,96.02
2016-12-22T00:07:20.615Z,95.92
2016-12-22T00:08:20.596Z,95.64
2016-12-22T00:09:20.581Z,96.11
2016-12-22T00:10:20.568Z,95.36
2016-12-22T00:11:20.549Z,96.11
2016-12-22T00:12:20.564Z,95.92
2016-12-22T00:13:20.515Z,96.11
2016-12-22T00:14:20.502Z,95.92
2016-12-22T00:15:20.483Z,95.92
2016-12-22T00:16:20.467Z,95.83
2016-12-22T00:17:20.451Z,95.83
2016-12-22T00:18:20.439Z,96.21
2016-12-22T00:19:20.420Z,95.83
2016-12-22T00:20:20.403Z,95.73
2016-12-22T00:21:20.389Z,95.73
2016-12-22T00:22:20.371Z,96.21
2016-12-22T00:23:20.358Z,95.83
2016-12-22T00:24:20.341Z,95.64
2016-12-22T00:25:20.323Z,95.73
2016-12-22T00:26:20.303Z,95.73
2016-12-22T00:27:20.289Z,95.92
2016-12-22T00:28:20.273Z,96.02
2016-12-22T00:29:20.259Z,95.92
2016-12-22T00:30:20.239Z,95.83
2016-12-22T00:31:20.226Z,95.92
2016-12-22T00:32:20.209Z,96.02
2016-12-22T00:33:20.194Z,95.83
2016-12-22T00:34:20.177Z,95.83
2016-12-22T00:35:20.159Z,95.64
2016-12-22T00:36:20.145Z,95.83
2016-12-22T00:37:20.126Z,95.73
2016-12-22T00:38:20.109Z,95.83
2016-12-22T00:39:20.127Z,95.36
2016-12-22T00:40:20.078Z,95.73
2016-12-22T00:41:20.059Z,95.73
2016-12-22T00:42:20.044Z,96.02
2016-12-22T00:43:20.029Z,95.73
2016-12-22T00:44:20.014Z,95.83
2016-12-22T00:45:19.995Z,96.11
2016-12-22T00:46:19.979Z,95.64
2016-12-22T00:47:19.963Z,96.02
2016-12-22T00:48:19.948Z,95.07
2016-12-22T00:49:19.930Z,95.26
2016-12-22T00:50:19.917Z,95.45
2016-12-22T00:51:19.901Z,95.45
2016-12-22T00:52:19.882Z,95.26
2016-12-22T00:53:19.866Z,95.73
2016-12-22T00:54:19.849Z,95.92
2016-12-22T00:55:19.834Z,95.83
2016-12-22T00:56:19.819Z,95.92
2016-12-22T00:57:20.108Z,95.73
2016-12-22T00:58:19.791Z,95.92
2016-12-22T00:59:19.768Z,95.73
2016-12-22T01:00:19.752Z,95.92
2016-12-22T01:01:19.737Z,95.92
2016-12-22T01:02:19.720Z,95.36
2016-12-22T01:03:19.705Z,95.92
2016-12-22T01:04:19.688Z,95.83
2016-12-22T01:05:19.672Z,95.17
2016-12-22T01:06:19.653Z,95.17
2016-12-22T01:07:19.638Z,95.45
2016-12-22T01:08:19.621Z,95.64
2016-12-22T01:09:19.606Z,95.36
2016-12-22T01:10:19.591Z,95.54
2016-12-22T01:11:19.572Z,95.07
2016-12-22T01:12:19.566Z,95.17
2016-12-22T01:13:19.542Z,95.07
2016-12-22T01:14:19.524Z,95.17
2016-12-22T01:15:19.509Z,95.07
2016-12-22T01:16:19.491Z,95.07
2016-12-22T01:17:19.474Z,95.26
2016-12-22T01:18:19.458Z,95.26
2016-12-22T01:19:19.462Z,95.36
2016-12-22T01:20:19.426Z,95.17
2016-12-22T01:21:19.408Z,95.17
2016-12-22T01:22:19.400Z,95.17
2016-12-22T01:23:19.378Z,96.02
2016-12-22T01:24:19.365Z,95.73
2016-12-22T01:25:19.345Z,95.07
2016-12-22T01:26:19.329Z,95.17
2016-12-22T01:27:19.311Z,95.4
2016-12-22T01:28:19.293Z,95.64
2016-12-22T01:29:19.282Z,95.92
2016-12-22T01:30:19.265Z,95.36
2016-12-22T01:31:19.248Z,95.92
2016-12-22T01:32:19.229Z,95.92
2016-12-22T01:33:19.212Z,96.11
2016-12-22T01:34:19.197Z,95.45
2016-12-22T01:35:19.181Z,94.84
2016-12-22T01:36:19.163Z,95.4
2016-12-22T01:37:19.147Z,95.59
2016-12-22T01:38:19.131Z,96.21
2016-12-22T01:39:19.420Z,95.87
2016-12-22T01:40:19.100Z,95.87
2016-12-22T01:41:19.081Z,95.87
2016-12-22T01:42:19.066Z,95.78
2016-12-22T01:43:19.048Z,95.45
2016-12-22T01:44:19.036Z,95.83
2016-12-22T01:45:19.015Z,95.78
2016-12-22T01:46:19.005Z,95.83
2016-12-22T01:47:18.981Z,95.78
2016-12-22T01:48:18.969Z,96.06
2016-12-22T01:49:18.950Z,96.02
2016-12-22T01:50:18.936Z,96.54
2016-12-22T01:51:18.917Z,96.16
2016-12-22T01:52:18.900Z,96.54
2016-12-22T01:53:18.891Z,96.54
2016-12-22T01:54:18.867Z,96.59
2016-12-22T01:55:18.851Z,96.3
2016-12-22T01:56:18.835Z,96.44
2016-12-22T01:57:18.819Z,96.11
2016-12-22T01:58:18.802Z,95.97
2016-12-22T01:59:18.785Z,95.78
2016-12-22T02:00:18.771Z,95.78
2016-12-22T02:01:18.751Z,95.78
2016-12-22T02:02:18.736Z,95.78
2016-12-22T02:03:18.721Z,95.97
2016-12-22T02:04:18.703Z,95.4
2016-12-22T02:05:18.688Z,95.4
2016-12-22T02:06:18.670Z,95.12
2016-12-22T02:07:18.656Z,94.93
2016-12-22T02:08:18.637Z,95.97
2016-12-22T02:09:18.623Z,95.21
2016-12-22T02:10:18.607Z,94.93
2016-12-22T02:11:18.588Z,95.12
2016-12-22T02:12:18.576Z,95.03
2016-12-22T02:13:18.553Z,95.03
2016-12-22T02:14:18.539Z,95.59
2016-12-22T02:15:18.524Z,95.4
2016-12-22T02:16:18.507Z,95.5
2016-12-22T02:17:18.490Z,95.59
2016-12-22T02:18:18.473Z,95.87
2016-12-22T02:19:18.458Z,95.87
2016-12-22T02:20:18.438Z,95.87
2016-12-22T02:21:18.423Z,95.97
2016-12-22T02:22:18.409Z,95.97
2016-12-22T02:23:18.389Z,96.06
2016-12-22T02:24:18.374Z,95.97
2016-12-22T02:25:18.358Z,95.59
2016-12-22T02:26:18.342Z,95.87
2016-12-22T02:27:18.324Z,95.97
2016-12-22T02:28:18.612Z,95.87
2016-12-22T02:29:18.291Z,95.78
2016-12-22T02:30:18.276Z,95.78
2016-12-22T02:31:18.257Z,95.68
2016-12-22T02:32:18.243Z,95.78
2016-12-22T02:33:18.225Z,95.78
2016-12-22T02:34:18.209Z,95.59
2016-12-22T02:35:18.292Z,95.87
2016-12-22T02:36:18.178Z,95.78
2016-12-22T02:37:18.161Z,95.59
2016-12-22T02:38:18.143Z,95.68
2016-12-22T02:39:18.128Z,95.78
2016-12-22T02:40:18.112Z,95.97
2016-12-22T02:41:18.094Z,95.97
2016-12-22T02:42:18.076Z,95.78
2016-12-22T02:43:18.060Z,95.5
2016-12-22T02:44:18.044Z,96.54
2016-12-22T02:45:18.025Z,95.97
2016-12-22T02:46:18.015Z,96.44
2016-12-22T02:47:17.995Z,95.87
2016-12-22T02:48:17.976Z,95.68
2016-12-22T02:49:17.961Z,96.06
2016-12-22T02:50:17.944Z,95.5
2016-12-22T02:51:17.932Z,95.87
2016-12-22T02:52:17.910Z,95.03
2016-12-22T02:53:17.893Z,95.59
2016-12-22T02:54:17.878Z,95.68
2016-12-22T02:55:17.859Z,95.78
2016-12-22T02:56:17.843Z,95.97
2016-12-22T02:57:17.828Z,95.68
2016-12-22T02:58:17.809Z,95.97
2016-12-22T02:59:17.796Z,95.78
2016-12-22T03:00:17.776Z,96.06
2016-12-22T03:01:17.759Z,96.54
2016-12-22T03:02:17.743Z,96.16
2016-12-22T03:03:17.727Z,96.54
2016-12-22T03:04:17.710Z,95.97
2016-12-22T03:05:17.693Z,95.78
2016-12-22T03:06:17.679Z,95.78
2016-12-22T03:07:17.663Z,95.87
2016-12-22T03:08:17.644Z,95.59
2016-12-22T03:09:17.628Z,96.16
2016-12-22T03:10:17.614Z,95.59
2016-12-22T03:11:17.632Z,95.59
2016-12-22T03:12:17.578Z,95.97
2016-12-22T03:13:17.562Z,95.5
2016-12-22T03:14:17.544Z,95.87
2016-12-22T03:15:17.528Z,95.68
2016-12-22T03:16:17.511Z,95.21
2016-12-22T03:17:17.496Z,95.4
2016-12-22T03:18:17.482Z,95.59
2016-12-22T03:19:17.463Z,95.87
2016-12-22T03:20:17.448Z,95.31
2016-12-22T03:21:17.430Z,95.87
2016-12-22T03:22:17.411Z,95.78
2016-12-22T03:23:17.397Z,95.87
2016-12-22T03:24:17.378Z,95.21
2016-12-22T03:25:17.363Z,95.87
2016-12-22T03:26:17.346Z,95.87
2016-12-22T03:27:17.329Z,95.97
2016-12-22T03:28:17.312Z,95.87
2016-12-22T03:29:17.295Z,95.4
2016-12-22T03:30:17.280Z,95.5
2016-12-22T03:31:17.262Z,95.21
2016-12-22T03:32:17.247Z,95.03
2016-12-22T03:33:17.228Z,95.87
2016-12-22T03:34:17.211Z,95.03
2016-12-22T03:35:17.196Z,95.4
2016-12-22T03:36:17.179Z,95.4
2016-12-22T03:37:17.162Z,95.21
2016-12-22T03:38:17.145Z,95.21
2016-12-22T03:39:17.131Z,95.59
2016-12-22T03:40:17.111Z,95.31
2016-12-22T03:41:17.097Z,95.4
2016-12-22T03:42:17.080Z,94.74
2016-12-22T03:43:17.064Z,94.93
2016-12-22T03:44:17.046Z,95.31
2016-12-22T03:45:17.036Z,95.21
2016-12-22T03:46:17.017Z,95.03
2016-12-22T03:47:16.995Z,95.97
2016-12-22T03:48:16.979Z,95.59
2016-12-22T03:49:16.967Z,95.5
2016-12-22T03:50:16.945Z,95.97
2016-12-22T03:51:16.960Z,95.21
2016-12-22T03:52:16.912Z,96.06
2016-12-22T03:53:16.896Z,96.06
2016-12-22T03:54:16.881Z,95.87
2016-12-22T03:55:16.863Z,95.87
2016-12-22T03:56:16.848Z,95.78
2016-12-22T03:57:16.829Z,95.78
2016-12-22T03:58:16.814Z,96.06
2016-12-22T03:59:16.795Z,95.87
2016-12-22T04:00:16.779Z,95.78
2016-12-22T04:01:16.763Z,95.59
2016-12-22T04:02:16.745Z,95.59
2016-12-22T04:03:16.729Z,95.87
2016-12-22T04:04:16.718Z,96.44
2016-12-22T04:05:16.696Z,96.16
2016-12-22T04:06:16.681Z,96.25
2016-12-22T04:07:16.664Z,95.97
2016-12-22T04:08:16.646Z,96.16
2016-12-22T04:09:16.629Z,96.25
2016-12-22T04:10:16.614Z,96.25
2016-12-22T04:11:16.597Z,96.16
2016-12-22T04:12:16.582Z,96.16
2016-12-22T04:13:16.565Z,96.54
2016-12-22T04:14:16.548Z,95.78
2016-12-22T04:15:16.530Z,95.68
2016-12-22T04:16:16.514Z,96.54
2016-12-22T04:17:16.498Z,96.44
2016-12-22T04:18:16.481Z,96.44
2016-12-22T04:19:16.465Z,96.54
2016-12-22T04:20:16.448Z,96.44
2016-12-22T04:21:16.431Z,96.44
2016-12-22T04:22:16.414Z,96.25
2016-12-22T04:23:16.403Z,96.16
2016-12-22T04:24:16.381Z,96.16
2016-12-22T04:25:16.366Z,96.25
2016-12-22T04:26:16.348Z,96.44
2016-12-22T04:27:16.330Z,95.78
2016-12-22T04:28:16.316Z,95.68
2016-12-22T04:29:16.299Z,96.54
2016-12-22T04:30:16.282Z,96.54
2016-12-22T04:31:16.267Z,96.54
2016-12-22T04:32:16.247Z,96.25
2016-12-22T04:33:16.232Z,96.44
2016-12-22T04:34:16.216Z,96.16
2016-12-22T04:35:16.198Z,96.06
2016-12-22T04:36:16.182Z,96.06
2016-12-22T04:37:16.166Z,96.44
2016-12-22T04:38:16.154Z,96.44
2016-12-22T04:39:16.131Z,96.54
2016-12-22T04:40:16.118Z,96.54
2016-12-22T04:41:16.100Z,96.54
2016-12-22T04:42:16.082Z,96.25
2016-12-22T04:43:16.067Z,96.54
2016-12-22T04:44:16.048Z,95.78
2016-12-22T04:45:16.033Z,95.78
2016-12-22T04:46:16.015Z,96.44
2016-12-22T04:47:16.001Z,95.78
2016-12-22T04:48:15.983Z,95.59
2016-12-22T04:49:15.968Z,95.78
2016-12-22T04:50:15.950Z,95.59
2016-12-22T04:51:15.933Z,95.68
2016-12-22T04:52:15.917Z,95.68
2016-12-22T04:53:15.901Z,95.68
2016-12-22T04:54:15.884Z,95.87
2016-12-22T04:55:15.867Z,95.87
2016-12-22T04:56:15.852Z,95.78
2016-12-22T04:57:15.834Z,95.97
2016-12-22T04:58:15.817Z,95.87
2016-12-22T04:59:15.808Z,95.87
2016-12-22T05:00:15.783Z,96.06
2016-12-22T05:01:15.769Z,95.5
2016-12-22T05:02:15.752Z,95.97
2016-12-22T05:03:15.735Z,95.59
2016-12-22T05:04:15.724Z,95.78
2016-12-22T05:05:15.702Z,95.87
2016-12-22T05:06:15.685Z,95.78
2016-12-22T05:07:15.668Z,95.87
2016-12-22T05:08:15.652Z,95.87
2016-12-22T05:09:15.636Z,95.87
2016-12-22T05:10:15.620Z,95.68
2016-12-22T05:11:15.602Z,95.31
2016-12-22T05:12:15.617Z,96.06
2016-12-22T05:13:15.570Z,95.4
2016-12-22T05:14:15.552Z,95.4
2016-12-22T05:15:15.536Z,95.78
2016-12-22T05:16:15.519Z,95.21
2016-12-22T05:17:15.504Z,95.64
2016-12-22T05:18:15.487Z,95.73
2016-12-22T05:19:15.471Z,95.45
2016-12-22T05:20:15.452Z,95.68
2016-12-22T05:21:15.440Z,95.83
2016-12-22T05:22:15.421Z,95.92
2016-12-22T05:23:15.404Z,95.45
2016-12-22T05:24:15.391Z,95.45
2016-12-22T05:25:15.401Z,95.07
2016-12-22T05:26:15.354Z,96.02
2016-12-22T05:27:15.337Z,96.02
2016-12-22T05:28:15.328Z,95.73
2016-12-22T05:29:15.306Z,95.54
2016-12-22T05:30:15.288Z,95.83
2016-12-22T05:31:15.273Z,95.07
2016-12-22T05:32:15.255Z,95.26
2016-12-22T05:33:15.240Z,95.45
2016-12-22T05:34:15.224Z,95.45
2016-12-22T05:35:15.511Z,95.26
2016-12-22T05:36:15.189Z,95.54
2016-12-22T05:37:15.174Z,95.36
2016-12-22T05:38:15.157Z,95.36
2016-12-22T05:39:15.141Z,95.45
2016-12-22T05:40:15.125Z,95.17
2016-12-22T05:41:15.108Z,95.36
2016-12-22T05:42:15.118Z,95.07
2016-12-22T05:43:15.075Z,94.7
2016-12-22T05:44:15.059Z,95.26
2016-12-22T05:45:15.042Z,94.41
2016-12-22T05:46:15.028Z,94.7
2016-12-22T05:47:15.011Z,95.54
2016-12-22T05:48:14.994Z,94.7
2016-12-22T05:49:14.977Z,94.51
2016-12-22T05:50:14.986Z,94.79
2016-12-22T05:51:14.943Z,94.7
2016-12-22T05:52:14.927Z,94.7
2016-12-22T05:53:14.912Z,94.79
2016-12-22T05:54:14.894Z,94.7
2016-12-22T05:55:14.881Z,94.7
2016-12-22T05:56:14.862Z,94.89
2016-12-22T05:57:14.848Z,94.89
2016-12-22T05:58:14.829Z,94.89
2016-12-22T05:59:14.813Z,94.32
2016-12-22T06:00:14.796Z,95.07
2016-12-22T06:01:14.780Z,94.89
2016-12-22T06:02:14.762Z,94.51
2016-12-22T06:03:14.749Z,94.79
2016-12-22T06:04:14.731Z,94.6
2016-12-22T06:05:14.715Z,94.41
2016-12-22T06:06:14.698Z,94.41
2016-12-22T06:07:14.682Z,94.6
2016-12-22T06:08:14.667Z,94.13
2016-12-22T06:09:14.650Z,94.41
2016-12-22T06:10:14.654Z,94.7
2016-12-22T06:11:14.616Z,94.79
2016-12-22T06:12:14.601Z,94.41
2016-12-22T06:13:14.585Z,94.22
2016-12-22T06:14:14.568Z,94.6
2016-12-22T06:15:14.551Z,94.6
2016-12-22T06:16:14.537Z,94.32
2016-12-22T06:17:14.518Z,94.98
2016-12-22T06:18:14.505Z,94.89
2016-12-22T06:19:14.486Z,94.7
2016-12-22T06:20:14.471Z,94.89
2016-12-22T06:21:14.453Z,94.98
2016-12-22T06:22:14.437Z,95.07
2016-12-22T06:23:14.423Z,94.41
2016-12-22T06:24:14.404Z,94.41
2016-12-22T06:25:14.387Z,94.03
2016-12-22T06:26:14.372Z,94.51
2016-12-22T06:27:14.355Z,94.41
2016-12-22T06:28:14.338Z,94.51
2016-12-22T06:29:14.322Z,94.6
2016-12-22T06:30:14.306Z,94.7
2016-12-22T06:31:14.290Z,94.51
2016-12-22T06:32:14.274Z,94.7
2016-12-22T06:33:14.258Z,94.41
2016-12-22T06:34:14.240Z,94.79
2016-12-22T06:35:14.225Z,94.6
2016-12-22T06:36:14.207Z,94.79
2016-12-22T06:37:14.190Z,94.22
2016-12-22T06:38:14.176Z,94.89
2016-12-22T06:39:14.159Z,94.03
2016-12-22T06:40:14.143Z,94.03
2016-12-22T06:41:14.127Z,94.03
2016-12-22T06:42:14.110Z,94.89
2016-12-22T06:43:14.095Z,94.7
2016-12-22T06:44:14.077Z,93.94
2016-12-22T06:45:14.062Z,94.89
2016-12-22T06:46:14.045Z,94.13
2016-12-22T06:47:14.032Z,94.32
2016-12-22T06:48:14.014Z,94.22
2016-12-22T06:49:13.999Z,94.22
2016-12-22T06:50:13.984Z,94.89
2016-12-22T06:51:13.966Z,93.66
2016-12-22T06:52:13.948Z,94.32
2016-12-22T06:53:13.932Z,94.6
2016-12-22T06:54:13.916Z,94.6
2016-12-22T06:55:13.899Z,94.03
2016-12-22T06:56:13.884Z,93.94
2016-12-22T06:57:13.864Z,94.03
2016-12-22T06:58:13.849Z,94.03
2016-12-22T06:59:13.834Z,94.03
2016-12-22T07:00:13.820Z,94.03
2016-12-22T07:01:13.801Z,94.03
2016-12-22T07:02:13.784Z,94.41
2016-12-22T07:03:13.771Z,93.94
2016-12-22T07:04:13.752Z,94.03
2016-12-22T07:05:13.735Z,94.51
2016-12-22T07:06:13.725Z,94.03
2016-12-22T07:07:13.707Z,94.22
2016-12-22T07:08:13.688Z,94.03
2016-12-22T07:09:13.694Z,94.03
2016-12-22T07:10:13.656Z,94.03
2016-12-22T07:11:13.640Z,94.13
2016-12-22T07:12:13.623Z,94.22
2016-12-22T07:13:13.609Z,94.03
2016-12-22T07:14:13.591Z,94.13
2016-12-22T07:15:13.575Z,94.41
2016-12-22T07:16:13.563Z,94.03
2016-12-22T07:17:13.543Z,94.13
2016-12-22T07:18:13.527Z,94.03
2016-12-22T07:19:13.508Z,94.03
2016-12-22T07:20:13.493Z,94.41
2016-12-22T07:21:13.479Z,93.84
2016-12-22T07:22:13.465Z,93.75
2016-12-22T07:23:13.446Z,93.66
2016-12-22T07:24:13.428Z,93.56
2016-12-22T07:25:13.414Z,94.13
2016-12-22T07:26:13.398Z,94.03
2016-12-22T07:27:13.380Z,94.22
2016-12-22T07:28:13.366Z,94.13
2016-12-22T07:29:13.353Z,94.13
2016-12-22T07:30:13.334Z,94.32
2016-12-22T07:31:13.317Z,94.32
2016-12-22T07:32:13.299Z,93.09
2016-12-22T07:33:13.285Z,93.94
2016-12-22T07:34:13.571Z,93.56
2016-12-22T07:35:13.253Z,93.75
2016-12-22T07:36:13.239Z,93.37
2016-12-22T07:37:13.222Z,93.28
2016-12-22T07:38:13.206Z,93.18
2016-12-22T07:39:13.189Z,93.28
2016-12-22T07:40:13.179Z,92.99
2016-12-22T07:41:13.157Z,93.09
2016-12-22T07:42:13.144Z,92.61
2016-12-22T07:43:13.158Z,93.09
2016-12-22T07:44:13.109Z,92.71
2016-12-22T07:45:13.095Z,92.9
2016-12-22T07:46:13.077Z,92.61
2016-12-22T07:47:13.063Z,92.8
2016-12-22T07:48:13.046Z,92.24
2016-12-22T07:49:13.030Z,92.61
2016-12-22T07:50:13.014Z,92.8
2016-12-22T07:51:13.030Z,92.8
2016-12-22T07:52:12.983Z,92.9
2016-12-22T07:53:12.967Z,92.99
2016-12-22T07:54:12.951Z,93.28
2016-12-22T07:55:12.938Z,93.18
2016-12-22T07:56:12.919Z,93.51
2016-12-22T07:57:12.906Z,93.23
2016-12-22T07:58:12.890Z,93.23
2016-12-22T07:59:12.872Z,93.23
2016-12-22T08:00:12.858Z,93.32
2016-12-22T08:01:12.846Z,92.85
2016-12-22T08:02:12.827Z,93.04
2016-12-22T08:03:12.809Z,92.94
2016-12-22T08:04:12.797Z,92.85
2016-12-22T08:05:13.083Z,92.94
2016-12-22T08:06:12.765Z,92.94
2016-12-22T08:07:12.748Z,92.85
2016-12-22T08:08:12.733Z,92.85
2016-12-22T08:09:12.720Z,93.04
2016-12-22T08:10:12.707Z,92.38
2016-12-22T08:11:12.686Z,92.29
2016-12-22T08:12:12.670Z,92.47
2016-12-22T08:13:12.656Z,93.32
2016-12-22T08:14:12.642Z,92.57
2016-12-22T08:15:12.625Z,93.04
2016-12-22T08:16:12.609Z,92.19
2016-12-22T08:17:12.594Z,93.23
2016-12-22T08:18:12.882Z,92.85
2016-12-22T08:19:12.563Z,92.85
2016-12-22T08:20:12.550Z,92.57
2016-12-22T08:21:12.532Z,92.9
2016-12-22T08:22:12.516Z,92.9
2016-12-22T08:23:12.506Z,92.9
2016-12-22T08:24:12.486Z,93.09
2016-12-22T08:25:12.471Z,92.8
2016-12-22T08:26:12.457Z,92.8
2016-12-22T08:27:12.443Z,92.9
2016-12-22T08:28:12.428Z,92.8
2016-12-22T08:29:12.411Z,92.99
2016-12-22T08:30:12.397Z,92.71
2016-12-22T08:31:12.383Z,92.43
2016-12-22T08:32:12.366Z,92.14
2016-12-22T08:33:12.381Z,92.1
2016-12-22T08:34:12.340Z,92.47
2016-12-22T08:35:12.324Z,92.29
2016-12-22T08:36:12.308Z,92
2016-12-22T08:37:12.294Z,91.62
2016-12-22T08:38:12.282Z,91.05
2016-12-22T08:39:12.265Z,90.96
2016-12-22T08:40:12.250Z,90.53
2016-12-22T08:41:12.237Z,90.72
2016-12-22T08:42:12.229Z,90.34
2016-12-22T08:43:12.210Z,90.34
2016-12-22T08:44:12.196Z,90.63
2016-12-22T08:45:12.185Z,89.96
2016-12-22T08:46:12.166Z,89.87
2016-12-22T08:47:12.152Z,88.26
2016-12-22T08:48:12.142Z,88.35
2016-12-22T08:49:12.126Z,88.02
2016-12-22T08:50:12.112Z,87.07
2016-12-22T08:51:12.099Z,87.45
2016-12-22T08:52:12.086Z,87.45
2016-12-22T08:53:12.072Z,86.79
2016-12-22T08:54:12.062Z,86.6
2016-12-22T08:55:12.045Z,86.41
2016-12-22T08:56:12.035Z,85.84
2016-12-22T08:57:12.019Z,85.65
2016-12-22T08:58:12.011Z,84.7
2016-12-22T08:59:11.994Z,84.42
2016-12-22T09:00:11.983Z,84.51
2016-12-22T09:01:11.968Z,84.7
2016-12-22T09:02:11.956Z,84.17
2016-12-22T09:03:11.944Z,83.98
2016-12-22T09:04:11.933Z,83.8
2016-12-22T09:05:11.918Z,83.61
2016-12-22T09:06:11.904Z,83.7
2016-12-22T09:07:11.894Z,83.61
2016-12-22T09:08:11.883Z,83.32
2016-12-22T09:09:11.867Z,83.51
2016-12-22T09:10:11.857Z,82.94
2016-12-22T09:11:11.844Z,82.56
2016-12-22T09:12:11.833Z,82.28
2016-12-22T09:13:11.822Z,81.9
2016-12-22T09:14:11.809Z,81.75
2016-12-22T09:15:11.796Z,81.56
2016-12-22T09:16:11.784Z,81.09
2016-12-22T09:17:11.772Z,80.8
2016-12-22T09:19:20.675Z,80.71
2016-12-22T09:22:24.764Z,80.04
2016-12-22T09:23:24.752Z,80.04
2016-12-22T09:24:24.740Z,80.24
2016-12-22T09:25:25.040Z,79.57
2016-12-22T09:26:24.717Z,79.47
2016-12-22T09:27:24.707Z,79.38
2016-12-22T09:28:24.695Z,79.38
2016-12-22T09:29:24.685Z,79.38
2016-12-22T09:30:24.673Z,79.28
2016-12-22T09:31:24.660Z,79.47
2016-12-22T09:32:24.649Z,78.81
2016-12-22T09:33:24.639Z,78.34
2016-12-22T09:34:24.628Z,78.81
2016-12-22T09:35:24.617Z,78.28
2016-12-22T09:36:24.604Z,78.56
2016-12-22T09:37:24.593Z,77.81
2016-12-22T09:38:24.580Z,77.9
2016-12-22T09:39:24.568Z,78
2016-12-22T09:40:24.559Z,77.9
2016-12-22T09:41:24.548Z,76.95
2016-12-22T09:42:24.539Z,77.33
2016-12-22T09:43:24.528Z,76.95
2016-12-22T09:44:24.513Z,76.29
2016-12-22T09:45:24.504Z,76.57
2016-12-22T09:46:24.491Z,76.76
2016-12-22T09:47:24.481Z,76.01
2016-12-22T09:48:24.469Z,76.67
2016-12-22T09:49:24.458Z,76.67
2016-12-22T09:50:24.446Z,76.57
2016-12-22T09:51:24.436Z,76.48
2016-12-22T09:52:24.426Z,76.57
2016-12-22T09:53:24.415Z,76.95
2016-12-22T09:54:24.403Z,75.53
2016-12-22T09:55:24.392Z,76.39
2016-12-22T09:56:24.384Z,75.62
2016-12-22T09:57:24.367Z,75.53
2016-12-22T09:58:24.358Z,75.72
2016-12-22T09:59:24.349Z,75.62
2016-12-22T10:00:24.336Z,75.05
2016-12-22T10:01:24.328Z,74.68
2016-12-22T10:02:24.316Z,75.43
2016-12-22T10:03:24.304Z,74.96
2016-12-22T10:04:24.318Z,76.01
2016-12-22T10:05:24.281Z,76.1
2016-12-22T10:06:24.275Z,75.19
2016-12-22T10:07:24.263Z,74.58
2016-12-22T10:08:24.249Z,74.49
2016-12-22T10:09:24.239Z,74.87
2016-12-22T10:10:24.227Z,74.77
2016-12-22T10:11:24.218Z,75.53
2016-12-22T10:12:24.206Z,75.76
2016-12-22T10:13:24.195Z,75.28
2016-12-22T10:14:24.186Z,74.68
2016-12-22T10:15:24.173Z,75.47
2016-12-22T10:16:24.163Z,74.52
2016-12-22T10:17:24.153Z,75.28
2016-12-22T10:18:24.142Z,74.62
2016-12-22T10:19:24.133Z,74.24
2016-12-22T10:20:24.146Z,73.57
2016-12-22T10:21:24.111Z,73.57
2016-12-22T10:22:24.100Z,74.52
2016-12-22T10:23:24.090Z,73.29
2016-12-22T10:24:24.081Z,73.67
2016-12-22T10:25:24.069Z,74.15
2016-12-22T10:26:24.060Z,73.86
2016-12-22T10:27:24.050Z,73.67
2016-12-22T10:28:24.040Z,73.76
2016-12-22T10:29:24.029Z,74.15
2016-12-22T10:30:24.019Z,73.96
2016-12-22T10:31:24.013Z,73.96
2016-12-22T10:32:24.000Z,73.42
2016-12-22T10:33:23.987Z,73.23
2016-12-22T10:34:24.286Z,73.04
2016-12-22T10:35:23.965Z,72.19
2016-12-22T10:36:23.956Z,72.38
2016-12-22T10:37:24.250Z,72.19
2016-12-22T10:38:23.935Z,72
2016-12-22T10:39:23.925Z,71.33
2016-12-22T10:40:23.918Z,71.33
2016-12-22T10:41:23.905Z,70.86
2016-12-22T10:42:23.899Z,71.04
2016-12-22T10:43:23.885Z,70.95
2016-12-22T10:44:23.875Z,71.23
2016-12-22T10:45:23.869Z,71.14
2016-12-22T10:46:23.855Z,72.19
2016-12-22T10:47:23.852Z,71.52
2016-12-22T10:48:23.837Z,70.48
2016-12-22T10:49:23.826Z,70.76
2016-12-22T10:50:23.818Z,70.95
2016-12-22T10:51:23.807Z,71.33
2016-12-22T10:52:23.798Z,70.95
2016-12-22T10:53:23.791Z,71.14
2016-12-22T10:54:23.780Z,70.95
2016-12-22T10:55:23.770Z,70.57
2016-12-22T10:56:23.759Z,70
2016-12-22T10:57:23.750Z,70.38
2016-12-22T10:58:23.745Z,70.76
2016-12-22T10:59:23.732Z,70.19
2016-12-22T11:00:23.720Z,70.19
2016-12-22T11:01:23.711Z,69.91
2016-12-22T11:02:23.700Z,70.38
2016-12-22T11:03:23.692Z,70.61
2016-12-22T11:04:23.682Z,70.61
2016-12-22T11:05:23.675Z,70.23
2016-12-22T11:06:23.664Z,69.56
2016-12-22T11:07:23.658Z,69.85
2016-12-22T11:08:23.645Z,69.66
2016-12-22T11:09:23.634Z,70.04
2016-12-22T11:10:23.627Z,69.94
2016-12-22T11:11:23.616Z,69.91
2016-12-22T11:12:23.607Z,70.1
2016-12-22T11:13:23.597Z,70
2016-12-22T11:14:23.587Z,69.85
2016-12-22T11:15:23.578Z,70.23
2016-12-22T11:16:23.569Z,69.75
2016-12-22T11:17:23.558Z,69.66
2016-12-22T11:18:23.549Z,69.27
2016-12-22T11:19:23.541Z,69.85
2016-12-22T11:20:23.530Z,69.37
2016-12-22T11:21:23.522Z,69.34
2016-12-22T11:22:23.511Z,69.37
2016-12-22T11:23:23.504Z,68.96
2016-12-22T11:24:23.491Z,69.53
2016-12-22T11:25:23.490Z,69.91
2016-12-22T11:26:23.475Z,70
2016-12-22T11:27:23.467Z,70.67
2016-12-22T11:28:23.453Z,70.38
2016-12-22T11:29:23.443Z,70.38
2016-12-22T11:30:23.739Z,70.38
2016-12-22T11:31:23.425Z,70.38
2016-12-22T11:32:23.418Z,70.76
2016-12-22T11:33:23.404Z,70.86
2016-12-22T11:34:23.399Z,71.23
2016-12-22T11:35:23.389Z,71.33
2016-12-22T11:36:23.375Z,70.95
2016-12-22T11:37:23.369Z,71.04
2016-12-22T11:38:23.359Z,71.23
2016-12-22T11:39:23.345Z,71.04
2016-12-22T11:40:23.344Z,71.04
2016-12-22T11:41:23.327Z,70.86
2016-12-22T11:42:23.317Z,70.76
2016-12-22T11:43:23.307Z,70.48
2016-12-22T11:44:23.299Z,70.57
2016-12-22T11:45:23.290Z,70.76
2016-12-22T11:46:23.278Z,71.04
2016-12-22T11:47:23.268Z,71.23
2016-12-22T11:48:23.258Z,70.76
2016-12-22T11:49:23.250Z,71.43
2016-12-22T11:50:23.241Z,71.04
2016-12-22T11:51:23.228Z,70.86
2016-12-22T11:52:23.218Z,71.33
2016-12-22T11:53:23.209Z,71.04
2016-12-22T11:54:23.201Z,71.04
2016-12-22T11:55:23.189Z,71.14
2016-12-22T11:56:23.179Z,70.95
2016-12-22T11:57:23.170Z,71.04
2016-12-22T11:58:23.160Z,70.95
2016-12-22T11:59:23.149Z,70.86
2016-12-22T12:00:23.139Z,70.95
2016-12-22T12:01:23.128Z,71.23
2016-12-22T12:02:23.121Z,71.23
2016-12-22T12:03:23.110Z,70.99
2016-12-22T12:04:23.103Z,71.04
2016-12-22T12:05:23.090Z,70.86
2016-12-22T12:06:23.080Z,71.27
2016-12-22T12:07:23.071Z,71.04
2016-12-22T12:08:23.059Z,71.04
2016-12-22T12:09:23.050Z,71.33
2016-12-22T12:10:23.041Z,71.52
2016-12-22T12:11:23.031Z,71.43
2016-12-22T12:12:23.020Z,72.19
2016-12-22T12:13:23.011Z,72
2016-12-22T12:14:23.006Z,72.19
2016-12-22T12:15:22.991Z,72.38
2016-12-22T12:16:22.981Z,72.19
2016-12-22T12:17:23.279Z,72.47
2016-12-22T12:18:22.961Z,72.47
2016-12-22T12:19:22.954Z,72.28
2016-12-22T12:20:22.942Z,72.38
2016-12-22T12:21:22.935Z,72.19
2016-12-22T12:22:22.920Z,72.28
2016-12-22T12:23:22.910Z,72.09
2016-12-22T12:24:22.900Z,72.28
2016-12-22T12:25:22.892Z,72.38
2016-12-22T12:26:22.901Z,72.19
2016-12-22T12:27:22.875Z,72.19
2016-12-22T12:28:22.862Z,72.28
2016-12-22T12:29:22.851Z,72.09
2016-12-22T12:30:23.142Z,71.81
2016-12-22T12:31:22.831Z,71.43
2016-12-22T12:32:22.820Z,71.71
2016-12-22T12:33:22.812Z,72.09
2016-12-22T12:34:22.799Z,72.28
2016-12-22T12:35:22.789Z,72
2016-12-22T12:36:22.777Z,71.62
2016-12-22T12:37:22.770Z,71.43
2016-12-22T12:38:22.763Z,71.9
2016-12-22T12:39:22.750Z,72.19
2016-12-22T12:40:22.747Z,71.71
2016-12-22T12:41:22.733Z,71.9
2016-12-22T12:42:22.718Z,71.71
2016-12-22T12:43:23.011Z,72.28
2016-12-22T12:44:22.697Z,71.52
2016-12-22T12:45:22.689Z,71.71
2016-12-22T12:46:22.680Z,72
2016-12-22T12:47:22.668Z,71.9
2016-12-22T12:48:22.658Z,71.71
2016-12-22T12:49:22.646Z,71.71
2016-12-22T12:50:22.638Z,72.09
2016-12-22T12:51:22.628Z,72.19
2016-12-22T12:52:22.615Z,72.66
2016-12-22T12:53:22.608Z,72.47
2016-12-22T12:54:22.597Z,72
2016-12-22T12:55:22.587Z,72.09
2016-12-22T12:56:22.575Z,72.09
2016-12-22T12:57:22.566Z,72.38
2016-12-22T12:58:22.555Z,72.66